Time;durP1;ratioP1;P1;durP2;ratioP2;P2;SDS_P1;SDS_P2;PMS_P1;PMS_P2;Temp;Humidity;BMP_temperature;BMP_pressure;BME280_temperature;BME280_humidity;BME280_pressure;Samples;Min_cycle;Max_cycle;Signal;HPM_P1;HPM_P2
2021/01/20 00:01:41;;;;;;;349.25;204.20;;;17.00;53.80;;;;;;5113588;28;20031;-58
2021/01/20 00:04:07;;;;;;;333.30;195.55;;;17.00;54.10;;;;;;5113466;28;20031;-59
2021/01/20 00:06:32;;;;;;;341.60;197.75;;;16.90;54.40;;;;;;5110571;28;20154;-60
2021/01/20 00:08:58;;;;;;;319.38;189.30;;;16.90;54.10;;;;;;5110524;28;20551;-59
2021/01/20 00:11:25;;;;;;;324.45;192.18;;;16.80;54.20;;;;;;5110847;28;20044;-60
2021/01/20 00:13:52;;;;;;;315.42;180.05;;;16.90;54.40;;;;;;5111039;28;20034;-60
2021/01/20 00:16:18;;;;;;;304.65;176.70;;;16.80;54.40;;;;;;5110892;28;20058;-59
2021/01/20 00:18:44;;;;;;;287.58;167.95;;;16.90;54.50;;;;;;5110794;28;20101;-59
2021/01/20 00:21:09;;;;;;;286.85;171.65;;;16.80;54.60;;;;;;5114984;28;20067;-58
2021/01/20 00:23:35;;;;;;;286.85;165.73;;;16.80;54.70;;;;;;5116356;28;20019;-58
2021/01/20 00:26:00;;;;;;;283.95;165.65;;;16.80;54.70;;;;;;5116992;28;20023;-58
2021/01/20 00:28:26;;;;;;;271.40;154.63;;;16.80;54.90;;;;;;5117172;28;20034;-58
2021/01/20 00:30:54;;;;;;;277.38;157.63;;;16.80;54.50;;;;;;5117275;28;20027;-58
2021/01/20 00:33:19;;;;;;;270.52;157.35;;;16.90;54.50;;;;;;5117015;28;20035;-58
2021/01/20 00:35:45;;;;;;;261.08;151.15;;;16.90;54.40;;;;;;5116871;28;20028;-58
2021/01/20 00:38:10;;;;;;;264.33;148.48;;;16.90;54.50;;;;;;5117020;28;20059;-58
2021/01/20 00:40:36;;;;;;;246.90;145.35;;;17.00;54.40;;;;;;5116732;28;20031;-58
2021/01/20 00:43:01;;;;;;;243.48;141.18;;;17.00;54.20;;;;;;5117085;28;20042;-58
2021/01/20 00:45:27;;;;;;;256.05;146.02;;;17.20;54.00;;;;;;5116355;28;20028;-58
2021/01/20 00:47:53;;;;;;;243.93;140.45;;;17.30;53.70;;;;;;5116569;28;20069;-59
2021/01/20 00:50:18;;;;;;;237.75;139.15;;;17.40;53.60;;;;;;5114811;28;20024;-58
2021/01/20 00:52:44;;;;;;;229.05;133.18;;;17.40;53.30;;;;;;5115914;28;20381;-59
2021/01/20 00:55:12;;;;;;;233.40;133.00;;;17.50;53.10;;;;;;5115186;28;20027;-59
2021/01/20 00:57:37;;;;;;;232.52;131.65;;;17.60;52.90;;;;;;5116667;28;20061;-58
2021/01/20 01:00:05;;;;;;;217.38;126.85;;;17.60;52.90;;;;;;5115195;28;20024;-60
2021/01/20 01:02:31;;;;;;;216.75;128.00;;;17.60;52.80;;;;;;5115661;28;20505;-58
2021/01/20 01:04:56;;;;;;;224.70;128.50;;;17.70;53.20;;;;;;5116355;28;20538;-58
2021/01/20 01:07:22;;;;;;;218.10;125.57;;;17.70;52.90;;;;;;5116248;28;20019;-58
2021/01/20 01:09:47;;;;;;;202.95;119.30;;;17.60;52.90;;;;;;5116450;28;20089;-58
2021/01/20 01:12:13;;;;;;;216.40;122.75;;;17.60;52.90;;;;;;5116198;28;20477;-58
2021/01/20 01:14:38;;;;;;;199.52;116.50;;;17.50;52.90;;;;;;5116224;28;20031;-58
2021/01/20 01:17:04;;;;;;;191.93;114.55;;;17.50;53.00;;;;;;5116198;28;20016;-58
2021/01/20 01:19:30;;;;;;;189.15;114.70;;;17.50;52.90;;;;;;5116198;28;20073;-58
2021/01/20 01:21:56;;;;;;;198.57;115.22;;;17.50;52.80;;;;;;5116501;28;20419;-58
2021/01/20 01:24:22;;;;;;;194.68;112.32;;;17.40;53.00;;;;;;5116213;28;20028;-58
2021/01/20 01:26:47;;;;;;;179.63;109.18;;;17.40;53.20;;;;;;5115833;28;20473;-58
2021/01/20 01:29:13;;;;;;;183.52;106.93;;;17.50;53.00;;;;;;5116034;28;20068;-58
2021/01/20 01:31:38;;;;;;;182.77;106.78;;;17.50;52.80;;;;;;5115054;28;20106;-58
2021/01/20 01:34:04;;;;;;;171.23;102.28;;;17.60;52.60;;;;;;5115730;28;20032;-58
2021/01/20 01:36:30;;;;;;;172.68;102.00;;;17.60;52.50;;;;;;5115682;28;20458;-58
2021/01/20 01:38:55;;;;;;;177.65;103.00;;;17.60;52.70;;;;;;5115732;28;20027;-58
2021/01/20 01:41:21;;;;;;;170.48;100.70;;;17.50;52.60;;;;;;5115909;28;20478;-58
2021/01/20 01:43:46;;;;;;;168.80;98.70;;;17.40;52.70;;;;;;5115764;28;20034;-58
2021/01/20 01:46:12;;;;;;;163.88;98.10;;;17.40;52.70;;;;;;5115655;28;20484;-59
2021/01/20 01:48:38;;;;;;;156.68;94.57;;;17.40;52.70;;;;;;5115652;28;20053;-58
2021/01/20 01:51:03;;;;;;;160.27;95.88;;;17.30;52.70;;;;;;5115355;28;20040;-58
2021/01/20 01:53:29;;;;;;;156.48;94.97;;;17.30;52.80;;;;;;5115440;28;20020;-58
2021/01/20 01:55:55;;;;;;;162.52;96.35;;;17.20;52.80;;;;;;5115710;28;20019;-58
2021/01/20 01:58:20;;;;;;;157.13;92.22;;;17.20;52.90;;;;;;5115528;28;20432;-58
2021/01/20 02:00:48;;;;;;;157.60;89.07;;;17.20;52.90;;;;;;5115346;28;20031;-58
2021/01/20 02:03:13;;;;;;;149.57;88.70;;;17.10;52.90;;;;;;5115127;28;20381;-58
2021/01/20 02:05:39;;;;;;;145.50;86.75;;;17.00;53.00;;;;;;5115667;28;20020;-58
2021/01/20 02:08:06;;;;;;;136.68;84.03;;;17.00;53.00;;;;;;5115139;28;20163;-58
2021/01/20 02:10:32;;;;;;;142.00;83.40;;;17.00;53.00;;;;;;5115213;28;20522;-58
2021/01/20 02:13:01;;;;;;;148.77;86.97;;;17.00;53.00;;;;;;5115043;28;20054;-58
2021/01/20 02:15:53;;;;;;;138.07;84.90;;;17.00;53.00;;;;;;5115138;28;20023;-58
2021/01/20 02:18:26;;;;;;;141.32;83.13;;;16.90;53.00;;;;;;5115116;28;20055;-58
2021/01/20 02:20:51;;;;;;;133.50;78.90;;;16.90;53.00;;;;;;5114708;28;20374;-58
2021/01/20 02:23:18;;;;;;;132.35;79.35;;;16.90;53.00;;;;;;5114875;28;20045;-58
2021/01/20 02:26:12;;;;;;;129.90;76.97;;;16.80;53.10;;;;;;5114793;28;20062;-58
2021/01/20 02:28:48;;;;;;;122.90;74.15;;;16.80;53.00;;;;;;5115213;28;20062;-57
2021/01/20 02:31:16;;;;;;;126.82;73.53;;;16.80;53.00;;;;;;5115088;28;20037;-58
2021/01/20 02:33:46;;;;;;;125.18;71.72;;;16.80;53.10;;;;;;5114797;28;20024;-58
2021/01/20 02:36:13;;;;;;;121.28;70.53;;;16.80;53.10;;;;;;5114760;28;20028;-58
2021/01/20 02:38:40;;;;;;;121.38;67.63;;;17.00;52.60;;;;;;5114618;27;20060;-58
2021/01/20 02:41:06;;;;;;;110.43;67.78;;;17.10;52.10;;;;;;5114516;28;20031;-58
2021/01/20 02:43:32;;;;;;;113.32;66.32;;;17.30;52.00;;;;;;5113638;28;20427;-58
2021/01/20 02:45:58;;;;;;;114.47;64.53;;;17.30;51.90;;;;;;5114660;28;20019;-57
2021/01/20 02:48:24;;;;;;;109.57;65.75;;;17.30;51.80;;;;;;5111745;28;20107;-58
2021/01/20 02:50:50;;;;;;;115.65;67.45;;;17.30;51.80;;;;;;5115202;28;20040;-58
2021/01/20 02:53:18;;;;;;;106.45;64.47;;;17.40;51.50;;;;;;5113448;28;20027;-59
2021/01/20 02:55:49;;;;;;;102.35;61.15;;;17.50;51.40;;;;;;5113606;28;20121;-58
2021/01/20 02:58:18;;;;;;;;;;;17.60;51.20;;;;;;5114711;28;20026;-58
2021/01/20 03:00:45;;;;;;;105.85;60.90;;;17.70;51.00;;;;;;5114282;28;19908;-58
2021/01/20 03:03:12;;;;;;;98.00;59.58;;;17.70;50.90;;;;;;5114027;28;20076;-58
2021/01/20 03:05:39;;;;;;;94.85;58.35;;;17.70;50.90;;;;;;5114703;28;20024;-58
2021/01/20 03:08:05;;;;;;;95.32;57.60;;;17.70;50.80;;;;;;5114166;28;20023;-58
2021/01/20 03:10:31;;;;;;;94.35;56.25;;;17.70;50.80;;;;;;5113928;28;20168;-58
2021/01/20 03:12:58;;;;;;;96.95;56.40;;;17.70;50.80;;;;;;5113805;28;20052;-58
2021/01/20 03:15:37;;;;;;;99.20;55.80;;;17.70;50.70;;;;;;5114007;28;20094;-60
2021/01/20 03:18:03;;;;;;;87.70;53.25;;;17.60;50.80;;;;;;5114610;28;20043;-58
2021/01/20 03:20:29;;;;;;;96.13;55.10;;;17.70;50.70;;;;;;5114013;28;20031;-58
2021/01/20 03:22:55;;;;;;;88.95;52.85;;;17.70;50.70;;;;;;5114295;28;20134;-58
2021/01/20 03:25:21;;;;;;;89.65;52.72;;;17.60;50.70;;;;;;5114153;28;20081;-58
2021/01/20 03:27:46;;;;;;;86.82;51.63;;;17.60;50.70;;;;;;5113957;28;20028;-58
2021/01/20 03:30:13;;;;;;;83.65;49.78;;;17.60;50.80;;;;;;5113922;28;20111;-58
2021/01/20 03:32:38;;;;;;;82.95;48.50;;;17.50;50.80;;;;;;5113952;28;20076;-58
2021/01/20 03:35:05;;;;;;;80.35;47.90;;;17.50;50.90;;;;;;5114151;28;20020;-58
2021/01/20 03:37:31;;;;;;;78.55;46.78;;;17.50;50.10;;;;;;5113631;28;20031;-58
2021/01/20 03:39:56;;;;;;;81.18;46.97;;;17.50;50.70;;;;;;5113969;28;20101;-58
2021/01/20 03:42:22;;;;;;;79.93;46.95;;;17.50;50.80;;;;;;5113785;28;20024;-58
2021/01/20 03:44:48;;;;;;;74.55;44.72;;;17.40;50.70;;;;;;5113482;28;20023;-58
2021/01/20 03:47:14;;;;;;;68.28;41.63;;;17.30;51.10;;;;;;5114109;28;20055;-58
2021/01/20 03:49:39;;;;;;;73.13;43.90;;;17.30;51.10;;;;;;5113787;28;20029;-57
2021/01/20 03:52:05;;;;;;;74.38;43.75;;;17.30;51.00;;;;;;5113884;28;20035;-58
2021/01/20 03:54:30;;;;;;;72.93;42.63;;;17.40;50.90;;;;;;5114709;28;20038;-58
2021/01/20 03:56:56;;;;;;;70.30;41.17;;;17.50;51.20;;;;;;5117862;28;20591;-58
2021/01/20 03:59:22;;;;;;;74.60;43.00;;;17.40;50.60;;;;;;5117772;28;20090;-58
2021/01/20 04:01:47;;;;;;;66.88;40.67;;;17.40;50.70;;;;;;5117566;28;20473;-58
2021/01/20 04:04:13;;;;;;;70.72;40.65;;;17.30;50.80;;;;;;5117516;28;20050;-58
2021/01/20 04:06:39;;;;;;;70.75;39.67;;;17.20;50.80;;;;;;5117401;28;20027;-58
2021/01/20 04:09:07;;;;;;;66.65;40.25;;;17.10;51.00;;;;;;5117632;28;20024;-58
2021/01/20 04:11:33;;;;;;;61.17;39.33;;;17.10;51.10;;;;;;5117672;28;20059;-60
2021/01/20 04:13:59;;;;;;;61.88;38.17;;;17.10;51.10;;;;;;5117982;28;20024;-58
2021/01/20 04:16:25;;;;;;;61.90;37.72;;;17.00;51.10;;;;;;5117948;28;20024;-58
2021/01/20 04:18:50;;;;;;;61.22;36.38;;;17.00;51.20;;;;;;5117520;28;20027;-58
2021/01/20 04:21:16;;;;;;;60.92;34.00;;;17.00;51.20;;;;;;5117301;28;20366;-58
2021/01/20 04:23:41;;;;;;;60.55;34.30;;;16.90;51.20;;;;;;5117259;28;20358;-58
2021/01/20 04:26:08;;;;;;;57.42;34.03;;;16.90;51.10;;;;;;5117100;28;20023;-59
2021/01/20 04:28:34;;;;;;;60.25;34.60;;;16.90;51.10;;;;;;5116895;28;20027;-58
2021/01/20 04:31:00;;;;;;;59.17;33.53;;;17.00;51.00;;;;;;5117066;28;20036;-58
2021/01/20 04:33:27;;;;;;;54.35;33.13;;;17.00;50.90;;;;;;5117220;28;20114;-58
2021/01/20 04:35:53;;;;;;;61.20;35.25;;;17.10;50.70;;;;;;5117219;28;20028;-58
2021/01/20 04:38:19;;;;;;;54.70;33.15;;;17.20;50.60;;;;;;5116838;28;20031;-58
2021/01/20 04:40:45;;;;;;;50.53;31.42;;;17.30;50.50;;;;;;5116928;28;20076;-58
2021/01/20 04:43:11;;;;;;;50.05;31.65;;;17.30;50.40;;;;;;5117192;28;20114;-58
2021/01/20 04:45:36;;;;;;;53.05;32.30;;;17.40;50.30;;;;;;5117166;28;20490;-58
2021/01/20 04:48:03;;;;;;;51.97;31.80;;;17.50;50.10;;;;;;5114772;28;20032;-58
2021/01/20 04:50:35;;;;;;;51.00;30.15;;;17.50;49.90;;;;;;5116818;28;20080;-58
2021/01/20 04:53:08;;;;;;;56.05;32.58;;;17.60;49.90;;;;;;5116127;28;20036;-59
2021/01/20 04:55:36;;;;;;;52.50;30.23;;;17.60;49.60;;;;;;5115023;28;20035;-58
2021/01/20 04:58:02;;;;;;;49.78;29.73;;;17.60;49.80;;;;;;5117069;28;20024;-58
2021/01/20 05:00:28;;;;;;;49.53;30.73;;;17.50;50.20;;;;;;5116649;28;20031;-58
2021/01/20 05:02:55;;;;;;;46.05;26.70;;;17.50;50.40;;;;;;5116412;28;20028;-58
2021/01/20 05:05:20;;;;;;;48.28;29.15;;;17.50;50.50;;;;;;5116398;28;20495;-58
2021/01/20 05:07:47;;;;;;;43.60;26.95;;;17.50;50.60;;;;;;5115685;28;20023;-58
2021/01/20 05:10:13;;;;;;;44.13;26.15;;;17.50;50.50;;;;;;5116444;28;20019;-58
2021/01/20 05:12:43;;;;;;;46.60;26.75;;;17.50;50.30;;;;;;5116213;28;20059;-58
2021/01/20 05:15:14;;;;;;;45.78;25.65;;;17.60;50.10;;;;;;5116348;28;20072;-57
2021/01/20 05:18:15;;;;;;;43.85;26.25;;;17.70;49.80;;;;;;5116338;28;20354;-57
2021/01/20 05:20:40;;;;;;;43.00;26.50;;;17.80;49.60;;;;;;5073216;28;20032;-58
2021/01/20 05:23:08;;;;;;;44.80;25.17;;;17.90;49.30;;;;;;5107125;28;20040;-58
2021/01/20 05:25:38;;;;;;;41.33;25.50;;;17.90;49.20;;;;;;5116114;28;20111;-58
2021/01/20 05:28:29;;;;;;;38.65;24.05;;;17.90;49.10;;;;;;5116362;28;20092;-58
2021/01/20 05:30:58;;;;;;;40.70;23.10;;;18.10;49.00;;;;;;5115820;28;20055;-58
2021/01/20 05:33:26;;;;;;;37.37;22.70;;;18.10;48.70;;;;;;5116024;28;20020;-58
2021/01/20 05:36:07;;;;;;;43.13;23.73;;;18.10;48.70;;;;;;5115892;28;20028;-58
2021/01/20 05:38:39;;;;;;;;;;;18.20;48.60;;;;;;5116105;28;20045;-58
2021/01/20 05:41:17;;;;;;;36.10;20.80;;;18.20;48.40;;;;;;5115904;28;19912;-58
2021/01/20 05:43:43;;;;;;;35.45;20.50;;;18.20;48.50;;;;;;5115772;28;20063;-58
2021/01/20 05:46:09;;;;;;;40.03;22.55;;;18.30;48.30;;;;;;5115757;28;20062;-58
2021/01/20 05:48:45;;;;;;;35.45;20.95;;;18.40;48.30;;;;;;5115790;28;20023;-57
2021/01/20 05:51:11;;;;;;;34.65;20.92;;;18.40;48.10;;;;;;5115614;28;20027;-58
2021/01/20 05:53:53;;;;;;;34.22;20.45;;;18.50;48.10;;;;;;5115587;28;20038;-58
2021/01/20 05:56:30;;;;;;;31.25;19.23;;;18.10;47.00;;;;;;5115636;28;20020;-58
2021/01/20 05:58:57;;;;;;;35.72;21.27;;;18.60;48.10;;;;;;5115792;28;20042;-58
2021/01/20 06:01:23;;;;;;;32.30;19.65;;;18.60;47.90;;;;;;5115315;28;20465;-58
2021/01/20 06:03:50;;;;;;;32.47;18.95;;;18.70;47.70;;;;;;5115517;28;20024;-58
2021/01/20 06:06:16;;;;;;;31.63;19.05;;;18.70;47.50;;;;;;5115298;28;20024;-58
2021/01/20 06:08:43;;;;;;;31.00;19.33;;;18.80;47.50;;;;;;5115315;28;20028;-58
2021/01/20 06:11:08;;;;;;;31.77;19.05;;;18.80;47.60;;;;;;5115026;28;20424;-58
2021/01/20 06:13:35;;;;;;;27.95;18.80;;;18.70;48.00;;;;;;5115565;28;20027;-58
2021/01/20 06:16:17;;;;;;;29.58;19.38;;;18.70;48.00;;;;;;5114967;28;20111;-58
2021/01/20 06:18:47;;;;;;;26.58;17.45;;;18.70;48.00;;;;;;5114858;28;20091;-58
2021/01/20 06:21:15;;;;;;;30.35;18.55;;;18.70;48.00;;;;;;5115027;28;20414;-58
2021/01/20 06:23:54;;;;;;;30.60;17.40;;;18.80;48.00;;;;;;5115016;28;20039;-58
2021/01/20 06:26:25;;;;;;;26.23;16.02;;;18.90;47.70;;;;;;5113895;28;20434;-58
2021/01/20 06:28:55;;;;;;;29.13;19.10;;;19.00;47.40;;;;;;5114686;28;20561;-59
2021/01/20 06:31:22;;;;;;;28.08;16.88;;;19.00;47.30;;;;;;5115100;28;20385;-58
2021/01/20 06:33:48;;;;;;;27.38;16.95;;;19.00;47.30;;;;;;5114748;28;20027;-58
2021/01/20 06:36:36;;;;;;;27.50;15.85;;;19.00;47.00;;;;;;5114734;28;20431;-58
2021/01/20 06:39:27;;;;;;;26.15;15.32;;;19.00;47.10;;;;;;5114464;28;20038;-58
2021/01/20 06:41:53;;;;;;;;;;;19.00;47.20;;;;;;5115039;28;20036;-57
2021/01/20 06:44:18;;;;;;;26.58;15.13;;;18.90;47.20;;;;;;5114678;28;19908;-58
2021/01/20 06:46:56;;;;;;;22.75;14.07;;;18.80;47.40;;;;;;5114490;28;20028;-58
2021/01/20 06:49:27;;;;;;;23.88;14.23;;;18.80;47.50;;;;;;5111987;28;20027;-58
2021/01/20 06:52:09;;;;;;;27.35;14.75;;;18.70;47.60;;;;;;5113926;28;20032;-59
2021/01/20 06:54:37;;;;;;;22.77;14.18;;;18.70;47.70;;;;;;5112810;28;20031;-60
2021/01/20 06:57:25;;;;;;;23.67;13.73;;;18.70;48.00;;;;;;5111423;28;20358;-59
2021/01/20 07:00:11;;;;;;;23.10;14.48;;;18.60;48.60;;;;;;5122110;27;20015;-60
2021/01/20 07:02:58;;;;;;;23.77;13.73;;;18.70;49.90;;;;;;5112898;28;20105;-58
2021/01/20 07:05:34;;;;;;;21.23;12.55;;;18.70;48.60;;;;;;5113213;28;20030;-55
2021/01/20 07:08:00;;;;;;;24.50;13.90;;;18.50;48.60;;;;;;5112284;28;20051;-57
2021/01/20 07:10:29;;;;;;;21.60;13.75;;;18.50;48.70;;;;;;5114037;28;20016;-58
2021/01/20 07:13:16;;;;;;;20.85;12.45;;;18.50;48.90;;;;;;5113947;28;20126;-56
2021/01/20 07:15:43;;;;;;;20.98;12.50;;;18.40;48.90;;;;;;5114139;28;20366;-58
2021/01/20 07:18:12;;;;;;;21.95;12.52;;;18.30;49.10;;;;;;5112691;28;20019;-57
2021/01/20 07:20:40;;;;;;;20.52;12.05;;;18.20;49.50;;;;;;5114190;28;20111;-57
2021/01/20 07:23:06;;;;;;;22.10;12.13;;;18.10;49.60;;;;;;5113452;28;20031;-58
2021/01/20 07:25:32;;;;;;;22.45;11.55;;;18.00;49.60;;;;;;5123925;28;20111;-57
2021/01/20 07:27:58;;;;;;;19.10;11.93;;;18.10;49.50;;;;;;5122977;27;20055;-58
2021/01/20 07:30:24;;;;;;;19.45;12.30;;;18.10;49.40;;;;;;5118630;27;20059;-59
2021/01/20 07:32:49;;;;;;;19.02;11.57;;;18.10;49.30;;;;;;5123544;27;20031;-58
2021/01/20 07:35:21;;;;;;;18.77;11.10;;;18.10;49.40;;;;;;5127317;27;20042;-58
2021/01/20 07:37:57;;;;;;;22.55;11.52;;;18.00;49.40;;;;;;5120783;27;20069;-58
2021/01/20 07:40:28;;;;;;;20.50;12.15;;;17.90;49.40;;;;;;5119369;28;20107;-57
2021/01/20 07:42:54;;;;;;;19.85;10.93;;;18.00;49.40;;;;;;5119279;27;20043;-58
2021/01/20 07:45:39;;;;;;;16.75;10.27;;;18.00;49.40;;;;;;5120692;27;20023;-57
2021/01/20 07:48:06;;;;;;;19.75;10.73;;;18.00;49.40;;;;;;5120562;27;20488;-58
2021/01/20 07:50:48;;;;;;;17.42;11.52;;;18.00;49.60;;;;;;5120249;27;20024;-58
2021/01/20 07:53:18;;;;;;;24.63;10.13;;;18.00;49.60;;;;;;5120697;27;20019;-58
2021/01/20 07:55:53;;;;;;;17.02;9.77;;;18.10;49.40;;;;;;5120635;27;20028;-58
2021/01/20 07:58:25;;;;;;;17.55;10.27;;;18.20;49.20;;;;;;5120622;28;20477;-59
2021/01/20 08:00:51;;;;;;;16.45;9.98;;;18.20;49.20;;;;;;5120818;27;20031;-57
2021/01/20 08:03:33;;;;;;;19.00;11.15;;;18.30;48.20;;;;;;5120542;28;20496;-58
2021/01/20 08:05:59;;;;;;;86.63;51.47;;;18.50;47.80;;;;;;5120817;28;20054;-59
2021/01/20 08:08:25;;;;;;;291.05;156.95;;;18.50;46.10;;;;;;5119047;27;20035;-60
2021/01/20 08:10:55;;;;;;;269.45;146.50;;;18.50;44.30;;;;;;5119996;28;20040;-61
2021/01/20 08:13:24;;;;;;;359.58;212.27;;;18.50;42.80;;;;;;5119337;28;20023;-58
2021/01/20 08:15:49;;;;;;;390.25;231.95;;;18.50;41.30;;;;;;5120516;27;20043;-59
2021/01/20 08:18:16;;;;;;;410.38;241.52;;;18.60;40.40;;;;;;5120480;28;20020;-59
2021/01/20 08:20:42;;;;;;;432.05;261.42;;;18.70;40.10;;;;;;5120039;27;20035;-59
2021/01/20 08:23:30;;;;;;;446.73;261.65;;;18.70;39.70;;;;;;5120441;27;20103;-59
2021/01/20 08:26:06;;;;;;;478.23;296.95;;;18.80;39.20;;;;;;5120508;27;20020;-63
2021/01/20 08:28:32;;;;;;;443.10;262.77;;;18.90;39.00;;;;;;5120171;27;20099;-60
2021/01/20 08:30:57;;;;;;;393.98;241.85;;;18.80;39.50;;;;;;5120531;28;20180;-63
2021/01/20 08:33:23;;;;;;;397.40;253.18;;;18.70;40.20;;;;;;5120340;27;20527;-59
2021/01/20 08:35:57;;;;;;;418.15;246.35;;;18.60;38.70;;;;;;5119979;28;20354;-60
2021/01/20 08:38:27;;;;;;;396.58;234.05;;;18.40;39.10;;;;;;5120365;27;20073;-60
2021/01/20 08:41:12;;;;;;;420.15;250.15;;;18.50;38.70;;;;;;5118965;27;20381;-60
2021/01/20 08:43:38;;;;;;;345.92;195.82;;;18.50;38.60;;;;;;5116891;28;20032;-60
2021/01/20 08:46:26;;;;;;;309.65;184.48;;;18.40;38.90;;;;;;5116972;28;20026;-60
2021/01/20 08:48:58;;;;;;;312.60;196.02;;;18.20;38.00;;;;;;5117093;28;20023;-60
2021/01/20 08:51:24;;;;;;;325.60;207.35;;;18.10;37.00;;;;;;5116853;28;20136;-62
2021/01/20 08:53:50;;;;;;;285.08;184.23;;;18.00;37.00;;;;;;5116825;28;20169;-59
2021/01/20 08:56:29;;;;;;;188.65;119.63;;;17.80;38.30;;;;;;5116814;28;20065;-57
2021/01/20 08:58:55;;;;;;;160.60;96.22;;;17.70;39.90;;;;;;5116637;28;20027;-58
2021/01/20 09:01:28;;;;;;;149.18;85.72;;;17.70;41.10;;;;;;5116296;28;20544;-59
2021/01/20 09:04:04;;;;;;;116.97;76.65;;;17.70;42.00;;;;;;5116225;28;20069;-59
2021/01/20 09:06:30;;;;;;;120.55;71.13;;;17.70;42.70;;;;;;5115100;28;20031;-59
2021/01/20 09:08:56;;;;;;;106.70;64.78;;;17.70;43.50;;;;;;5116428;28;20049;-58
2021/01/20 09:11:23;;;;;;;100.43;60.92;;;17.80;44.20;;;;;;5115921;28;20044;-58
2021/01/20 09:13:50;;;;;;;97.95;59.03;;;17.80;45.10;;;;;;5115211;28;20074;-58
2021/01/20 09:16:16;;;;;;;90.65;55.38;;;17.80;45.60;;;;;;5114823;28;20303;-59
2021/01/20 09:18:42;;;;;;;84.65;52.22;;;17.80;46.10;;;;;;5113774;28;20694;-59
2021/01/20 09:21:07;;;;;;;91.15;54.38;;;17.80;46.60;;;;;;5114340;28;20057;-59
2021/01/20 09:23:33;;;;;;;84.03;50.88;;;17.80;47.20;;;;;;5115288;28;20123;-60
2021/01/20 09:25:59;;;;;;;85.03;48.40;;;17.90;47.70;;;;;;5115429;28;20059;-59
2021/01/20 09:28:25;;;;;;;78.38;46.90;;;17.90;48.90;;;;;;5115405;28;20388;-58
2021/01/20 09:30:51;;;;;;;74.55;45.35;;;17.90;48.30;;;;;;5115663;28;20028;-58
2021/01/20 09:33:17;;;;;;;81.28;45.97;;;17.90;48.80;;;;;;5116326;28;20030;-58
2021/01/20 09:35:44;;;;;;;78.20;46.53;;;18.00;49.20;;;;;;5115968;28;20027;-58
2021/01/20 09:38:10;;;;;;;77.55;44.65;;;18.00;49.50;;;;;;5115417;28;20456;-59
2021/01/20 09:40:35;;;;;;;72.35;42.53;;;18.00;49.80;;;;;;5116153;28;20032;-58
2021/01/20 09:43:01;;;;;;;73.82;42.58;;;18.00;49.60;;;;;;5115854;28;20027;-59
2021/01/20 09:45:29;;;;;;;69.22;41.47;;;18.00;49.80;;;;;;5116127;28;20035;-58
2021/01/20 09:47:56;;;;;;;72.03;41.80;;;18.20;49.80;;;;;;5115982;28;20027;-58
2021/01/20 09:50:23;;;;;;;65.90;41.20;;;18.30;49.60;;;;;;5115509;28;20027;-58
2021/01/20 09:52:49;;;;;;;61.75;39.22;;;18.40;49.90;;;;;;5115058;28;20461;-59
2021/01/20 09:55:15;;;;;;;57.75;37.38;;;18.50;49.90;;;;;;5115597;28;20028;-59
2021/01/20 09:57:41;;;;;;;59.85;37.97;;;18.50;50.10;;;;;;5115924;28;20465;-58
2021/01/20 10:00:09;;;;;;;60.40;38.83;;;18.50;50.40;;;;;;5115544;28;20030;-58
2021/01/20 10:02:37;;;;;;;61.30;38.75;;;18.50;50.70;;;;;;5115238;28;20105;-58
2021/01/20 10:05:03;;;;;;;58.63;37.83;;;18.50;50.60;;;;;;5115134;28;20027;-58
2021/01/20 10:07:28;;;;;;;57.28;36.95;;;18.50;50.80;;;;;;5115286;28;20046;-58
2021/01/20 10:09:54;;;;;;;58.58;36.83;;;18.60;51.00;;;;;;5115323;28;20529;-59
2021/01/20 10:12:20;;;;;;;56.40;35.50;;;18.60;50.80;;;;;;5115272;28;20051;-58
2021/01/20 10:14:46;;;;;;;60.05;36.15;;;18.60;51.30;;;;;;5115220;28;20024;-58
2021/01/20 10:17:12;;;;;;;55.70;35.00;;;18.60;51.10;;;;;;5115152;28;20016;-58
2021/01/20 10:19:38;;;;;;;59.15;34.38;;;18.70;50.90;;;;;;5115195;28;20043;-58
2021/01/20 10:22:04;;;;;;;59.95;34.40;;;18.70;51.00;;;;;;5114946;28;20500;-59
2021/01/20 10:24:30;;;;;;;58.92;33.08;;;18.70;51.10;;;;;;5115266;28;20062;-58
2021/01/20 10:26:56;;;;;;;55.97;34.33;;;18.70;50.80;;;;;;5115050;28;20028;-58
2021/01/20 10:29:22;;;;;;;54.88;31.90;;;18.70;51.00;;;;;;5114963;28;20038;-59
2021/01/20 10:31:47;;;;;;;57.58;32.78;;;18.70;50.90;;;;;;5114945;28;20023;-59
2021/01/20 10:34:13;;;;;;;47.53;31.63;;;18.70;50.60;;;;;;5114803;28;20139;-58
2021/01/20 10:36:40;;;;;;;53.55;33.78;;;18.80;50.80;;;;;;5114542;28;20027;-59
2021/01/20 10:39:08;;;;;;;51.83;31.40;;;18.80;50.80;;;;;;5114667;28;20032;-59
2021/01/20 10:41:35;;;;;;;48.17;31.38;;;18.90;50.80;;;;;;5114758;28;20496;-59
2021/01/20 10:44:01;;;;;;;47.40;32.58;;;19.00;50.40;;;;;;5114527;28;20031;-58
2021/01/20 10:46:26;;;;;;;47.25;31.73;;;19.00;50.40;;;;;;5114903;28;20160;-58
2021/01/20 10:48:54;;;;;;;49.28;29.15;;;19.10;50.30;;;;;;5114273;28;20061;-59
2021/01/20 10:51:20;;;;;;;44.63;29.17;;;18.90;50.30;;;;;;5114858;28;20028;-59
2021/01/20 10:53:46;;;;;;;48.58;29.45;;;18.90;50.50;;;;;;5114986;28;20030;-58
2021/01/20 10:56:12;;;;;;;44.95;28.17;;;18.80;50.30;;;;;;5114375;28;20110;-59
2021/01/20 10:58:38;;;;;;;43.67;27.65;;;18.90;50.40;;;;;;5114545;28;20035;-59
2021/01/20 11:01:04;;;;;;;46.50;29.83;;;19.00;50.10;;;;;;5114338;28;20423;-59
2021/01/20 11:03:30;;;;;;;42.25;27.42;;;19.00;50.00;;;;;;5113932;28;20447;-58
2021/01/20 11:05:55;;;;;;;43.88;28.05;;;19.10;49.80;;;;;;5113931;28;20023;-59
2021/01/20 11:08:21;;;;;;;39.65;26.88;;;19.10;49.70;;;;;;5114024;28;20051;-59
2021/01/20 11:10:47;;;;;;;41.67;25.38;;;19.00;49.80;;;;;;5114492;28;20032;-59
2021/01/20 11:13:13;;;;;;;41.67;25.23;;;18.90;50.00;;;;;;5113957;28;20047;-58
2021/01/20 11:15:47;;;;;;;43.10;27.13;;;18.90;50.20;;;;;;5113911;28;20102;-58
2021/01/20 11:18:15;;;;;;;45.60;29.02;;;18.90;50.10;;;;;;5114107;28;20106;-59
2021/01/20 11:20:43;;;;;;;41.40;26.83;;;18.80;50.30;;;;;;5114152;28;20111;-59
2021/01/20 11:23:12;;;;;;;41.42;26.00;;;18.70;50.30;;;;;;5114153;28;20046;-59
2021/01/20 11:25:44;;;;;;;43.90;25.37;;;18.70;50.30;;;;;;5114099;28;20027;-58
2021/01/20 11:28:10;;;;;;;37.10;24.42;;;18.70;50.30;;;;;;5114126;28;20111;-59
2021/01/20 11:30:36;;;;;;;39.58;24.50;;;18.60;50.30;;;;;;5114031;28;20031;-58
2021/01/20 11:33:02;;;;;;;38.63;24.23;;;18.60;50.20;;;;;;5114339;28;20023;-59
2021/01/20 11:35:28;;;;;;;39.30;24.55;;;18.60;50.40;;;;;;5114080;28;20030;-59
2021/01/20 11:37:56;;;;;;;38.25;22.30;;;18.60;50.30;;;;;;5113719;28;20023;-59
2021/01/20 11:40:26;;;;;;;42.78;24.17;;;18.60;50.40;;;;;;5114684;28;20032;-58
2021/01/20 11:42:57;;;;;;;35.90;21.73;;;18.50;50.60;;;;;;5113903;28;20519;-59
2021/01/20 11:45:23;;;;;;;33.67;22.55;;;18.50;50.20;;;;;;5114149;28;20027;-59
2021/01/20 11:47:49;;;;;;;36.45;21.60;;;18.50;50.40;;;;;;5113937;28;20035;-59
2021/01/20 11:50:14;;;;;;;36.00;23.77;;;18.50;50.50;;;;;;5113540;28;20024;-59
2021/01/20 11:52:40;;;;;;;33.60;21.88;;;18.50;50.30;;;;;;5113671;28;20036;-59
2021/01/20 11:55:06;;;;;;;31.35;21.05;;;18.40;50.40;;;;;;5113749;28;20031;-59
2021/01/20 11:57:32;;;;;;;34.63;22.23;;;18.30;50.30;;;;;;5113834;28;20028;-59
2021/01/20 11:59:57;;;;;;;34.47;22.75;;;18.40;50.50;;;;;;5113782;28;20027;-59
2021/01/20 12:02:23;;;;;;;34.00;20.40;;;18.30;50.40;;;;;;5113793;28;20144;-60
2021/01/20 12:04:48;;;;;;;38.25;22.27;;;18.30;50.40;;;;;;5113924;28;20029;-60
2021/01/20 12:07:14;;;;;;;34.67;20.20;;;18.50;50.10;;;;;;5113937;28;20031;-59
2021/01/20 12:09:39;;;;;;;30.25;20.00;;;18.50;49.80;;;;;;5113757;28;20023;-59
2021/01/20 12:12:06;;;;;;;35.83;20.73;;;18.70;49.60;;;;;;5113522;28;20074;-60
2021/01/20 12:14:36;;;;;;;30.35;20.00;;;18.70;49.40;;;;;;5113568;28;20129;-58
2021/01/20 12:17:03;;;;;;;30.60;19.63;;;18.70;49.40;;;;;;5117423;28;20054;-59
2021/01/20 12:19:28;;;;;;;33.35;19.58;;;18.60;49.50;;;;;;5117509;28;20027;-59
2021/01/20 12:21:54;;;;;;;32.58;20.50;;;18.60;49.70;;;;;;5117533;28;20032;-59
2021/01/20 12:24:20;;;;;;;31.90;20.23;;;18.60;49.60;;;;;;5117493;28;20477;-59
2021/01/20 12:26:45;;;;;;;29.10;18.52;;;18.60;49.40;;;;;;5117082;28;20023;-59
2021/01/20 12:29:11;;;;;;;30.83;18.73;;;18.70;49.40;;;;;;5117014;28;20511;-59